sensor_id;sensor_type;location;lat;lon;timestamp;P1;durP1;ratioP1;P2;durP2;ratioP2
74616;SDS011;63123;50.906;4.198;2023-04-15T00:00:14;1.70;;;1.50;;
74616;SDS011;63123;50.906;4.198;2023-04-15T00:02:40;1.85;;;1.67;;
74616;SDS011;63123;50.906;4.198;2023-04-15T00:05:06;1.63;;;1.52;;
74616;SDS011;63123;50.906;4.198;2023-04-15T00:07:32;1.75;;;1.63;;
74616;SDS011;63123;50.906;4.198;2023-04-15T00:09:58;1.58;;;1.40;;
74616;SDS011;63123;50.906;4.198;2023-04-15T00:12:24;1.50;;;1.20;;
74616;SDS011;63123;50.906;4.198;2023-04-15T00:14:51;2.17;;;1.63;;
74616;SDS011;63123;50.906;4.198;2023-04-15T00:17:18;2.35;;;2.15;;
74616;SDS011;63123;50.906;4.198;2023-04-15T00:19:44;1.50;;;1.40;;
74616;SDS011;63123;50.906;4.198;2023-04-15T00:22:10;2.00;;;1.80;;
74616;SDS011;63123;50.906;4.198;2023-04-15T00:24:36;2.17;;;1.98;;
74616;SDS011;63123;50.906;4.198;2023-04-15T00:27:02;2.08;;;1.88;;
74616;SDS011;63123;50.906;4.198;2023-04-15T00:29:28;2.00;;;1.80;;
74616;SDS011;63123;50.906;4.198;2023-04-15T00:31:54;1.67;;;1.58;;
74616;SDS011;63123;50.906;4.198;2023-04-15T00:34:21;1.92;;;1.80;;
74616;SDS011;63123;50.906;4.198;2023-04-15T00:36:47;1.80;;;1.60;;
74616;SDS011;63123;50.906;4.198;2023-04-15T00:39:13;1.52;;;1.42;;
74616;SDS011;63123;50.906;4.198;2023-04-15T00:41:40;1.52;;;1.42;;
74616;SDS011;63123;50.906;4.198;2023-04-15T00:44:06;1.77;;;1.67;;
74616;SDS011;63123;50.906;4.198;2023-04-15T00:46:32;1.67;;;1.58;;
74616;SDS011;63123;50.906;4.198;2023-04-15T00:49:00;1.80;;;1.70;;
74616;SDS011;63123;50.906;4.198;2023-04-15T00:51:28;1.45;;;1.35;;
74616;SDS011;63123;50.906;4.198;2023-04-15T00:53:55;1.50;;;1.40;;
74616;SDS011;63123;50.906;4.198;2023-04-15T00:56:20;1.85;;;1.45;;
74616;SDS011;63123;50.906;4.198;2023-04-15T00:58:48;1.63;;;1.52;;
74616;SDS011;63123;50.906;4.198;2023-04-15T01:01:15;1.58;;;1.48;;
74616;SDS011;63123;50.906;4.198;2023-04-15T01:03:45;1.50;;;1.40;;
74616;SDS011;63123;50.906;4.198;2023-04-15T01:06:11;1.75;;;1.20;;
74616;SDS011;63123;50.906;4.198;2023-04-15T01:08:38;1.60;;;1.50;;
74616;SDS011;63123;50.906;4.198;2023-04-15T01:11:03;1.67;;;1.58;;
74616;SDS011;63123;50.906;4.198;2023-04-15T01:13:29;1.75;;;1.65;;
74616;SDS011;63123;50.906;4.198;2023-04-15T01:15:57;1.50;;;1.40;;
74616;SDS011;63123;50.906;4.198;2023-04-15T01:18:23;1.40;;;1.30;;
74616;SDS011;63123;50.906;4.198;2023-04-15T01:20:49;1.70;;;1.50;;
74616;SDS011;63123;50.906;4.198;2023-04-15T01:23:15;1.77;;;1.67;;
74616;SDS011;63123;50.906;4.198;2023-04-15T01:25:41;1.70;;;1.60;;
74616;SDS011;63123;50.906;4.198;2023-04-15T01:28:08;1.48;;;1.30;;
74616;SDS011;63123;50.906;4.198;2023-04-15T01:30:34;1.92;;;1.75;;
74616;SDS011;63123;50.906;4.198;2023-04-15T01:33:00;1.50;;;1.40;;
74616;SDS011;63123;50.906;4.198;2023-04-15T01:35:26;1.50;;;1.40;;
74616;SDS011;63123;50.906;4.198;2023-04-15T01:37:52;1.33;;;1.23;;
74616;SDS011;63123;50.906;4.198;2023-04-15T01:40:18;1.88;;;1.35;;
74616;SDS011;63123;50.906;4.198;2023-04-15T01:42:44;1.67;;;1.58;;
74616;SDS011;63123;50.906;4.198;2023-04-15T01:45:10;1.35;;;1.20;;
74616;SDS011;63123;50.906;4.198;2023-04-15T01:47:37;1.52;;;1.35;;
74616;SDS011;63123;50.906;4.198;2023-04-15T01:50:03;1.33;;;1.23;;
74616;SDS011;63123;50.906;4.198;2023-04-15T01:52:30;1.85;;;1.73;;
74616;SDS011;63123;50.906;4.198;2023-04-15T01:54:56;1.75;;;1.65;;
74616;SDS011;63123;50.906;4.198;2023-04-15T01:57:22;1.58;;;1.48;;
74616;SDS011;63123;50.906;4.198;2023-04-15T01:59:47;1.60;;;1.50;;
74616;SDS011;63123;50.906;4.198;2023-04-15T02:02:13;1.42;;;1.33;;
74616;SDS011;63123;50.906;4.198;2023-04-15T02:04:39;1.90;;;1.73;;
74616;SDS011;63123;50.906;4.198;2023-04-15T02:07:04;1.67;;;1.58;;
74616;SDS011;63123;50.906;4.198;2023-04-15T02:09:31;1.63;;;1.30;;
74616;SDS011;63123;50.906;4.198;2023-04-15T02:11:56;3.17;;;1.73;;
74616;SDS011;63123;50.906;4.198;2023-04-15T02:14:22;1.65;;;1.55;;
74616;SDS011;63123;50.906;4.198;2023-04-15T02:16:47;1.77;;;1.55;;
74616;SDS011;63123;50.906;4.198;2023-04-15T02:19:13;1.90;;;1.70;;
74616;SDS011;63123;50.906;4.198;2023-04-15T02:21:39;2.20;;;1.60;;
74616;SDS011;63123;50.906;4.198;2023-04-15T02:24:05;2.42;;;2.22;;
74616;SDS011;63123;50.906;4.198;2023-04-15T02:26:31;1.90;;;1.70;;
74616;SDS011;63123;50.906;4.198;2023-04-15T02:28:57;2.30;;;1.90;;
74616;SDS011;63123;50.906;4.198;2023-04-15T02:31:23;2.55;;;2.00;;
74616;SDS011;63123;50.906;4.198;2023-04-15T02:33:49;2.17;;;1.98;;
74616;SDS011;63123;50.906;4.198;2023-04-15T02:36:15;2.25;;;2.03;;
74616;SDS011;63123;50.906;4.198;2023-04-15T02:38:41;2.85;;;2.63;;
74616;SDS011;63123;50.906;4.198;2023-04-15T02:41:10;1.70;;;1.58;;
74616;SDS011;63123;50.906;4.198;2023-04-15T02:43:35;2.80;;;1.83;;
74616;SDS011;63123;50.906;4.198;2023-04-15T02:46:02;2.15;;;1.95;;
74616;SDS011;63123;50.906;4.198;2023-04-15T02:48:28;2.90;;;2.70;;
74616;SDS011;63123;50.906;4.198;2023-04-15T02:50:58;2.45;;;2.25;;
74616;SDS011;63123;50.906;4.198;2023-04-15T02:53:38;3.33;;;2.47;;
74616;SDS011;63123;50.906;4.198;2023-04-15T02:56:04;1.73;;;1.60;;
74616;SDS011;63123;50.906;4.198;2023-04-15T02:58:30;2.85;;;2.65;;
74616;SDS011;63123;50.906;4.198;2023-04-15T03:00:56;2.65;;;2.40;;
74616;SDS011;63123;50.906;4.198;2023-04-15T03:03:21;2.58;;;2.15;;
74616;SDS011;63123;50.906;4.198;2023-04-15T03:05:47;3.17;;;2.75;;
74616;SDS011;63123;50.906;4.198;2023-04-15T03:08:12;2.92;;;2.47;;
74616;SDS011;63123;50.906;4.198;2023-04-15T03:10:38;3.05;;;2.72;;
74616;SDS011;63123;50.906;4.198;2023-04-15T03:13:04;3.00;;;2.70;;
74616;SDS011;63123;50.906;4.198;2023-04-15T03:15:31;2.75;;;2.55;;
74616;SDS011;63123;50.906;4.198;2023-04-15T03:17:56;3.17;;;2.60;;
74616;SDS011;63123;50.906;4.198;2023-04-15T03:20:22;2.40;;;2.17;;
74616;SDS011;63123;50.906;4.198;2023-04-15T03:22:48;3.33;;;2.92;;
74616;SDS011;63123;50.906;4.198;2023-04-15T03:25:13;2.65;;;2.38;;
74616;SDS011;63123;50.906;4.198;2023-04-15T03:27:40;2.83;;;2.40;;
74616;SDS011;63123;50.906;4.198;2023-04-15T03:30:06;1.95;;;1.80;;
74616;SDS011;63123;50.906;4.198;2023-04-15T03:32:32;2.65;;;2.33;;
74616;SDS011;63123;50.906;4.198;2023-04-15T03:34:58;2.50;;;2.30;;
74616;SDS011;63123;50.906;4.198;2023-04-15T03:37:24;2.20;;;2.00;;
74616;SDS011;63123;50.906;4.198;2023-04-15T03:39:49;2.33;;;2.10;;
74616;SDS011;63123;50.906;4.198;2023-04-15T03:42:15;2.42;;;2.20;;
74616;SDS011;63123;50.906;4.198;2023-04-15T03:44:41;3.08;;;2.20;;
74616;SDS011;63123;50.906;4.198;2023-04-15T03:47:06;2.38;;;2.17;;
74616;SDS011;63123;50.906;4.198;2023-04-15T03:49:32;2.28;;;2.08;;
74616;SDS011;63123;50.906;4.198;2023-04-15T03:51:58;2.92;;;2.65;;
74616;SDS011;63123;50.906;4.198;2023-04-15T03:54:23;2.83;;;2.17;;
74616;SDS011;63123;50.906;4.198;2023-04-15T03:56:49;2.72;;;2.08;;
74616;SDS011;63123;50.906;4.198;2023-04-15T03:59:15;2.45;;;2.25;;
74616;SDS011;63123;50.906;4.198;2023-04-15T04:01:40;2.47;;;2.22;;
74616;SDS011;63123;50.906;4.198;2023-04-15T04:04:06;2.17;;;1.98;;
74616;SDS011;63123;50.906;4.198;2023-04-15T04:06:32;2.72;;;2.22;;
74616;SDS011;63123;50.906;4.198;2023-04-15T04:08:57;1.90;;;1.67;;
74616;SDS011;63123;50.906;4.198;2023-04-15T04:11:23;2.75;;;2.30;;
74616;SDS011;63123;50.906;4.198;2023-04-15T04:13:49;2.55;;;2.20;;
74616;SDS011;63123;50.906;4.198;2023-04-15T04:16:14;2.45;;;2.25;;
74616;SDS011;63123;50.906;4.198;2023-04-15T04:18:40;2.95;;;2.45;;
74616;SDS011;63123;50.906;4.198;2023-04-15T04:21:06;2.88;;;2.03;;
74616;SDS011;63123;50.906;4.198;2023-04-15T04:23:32;2.00;;;1.90;;
74616;SDS011;63123;50.906;4.198;2023-04-15T04:25:57;2.47;;;2.28;;
74616;SDS011;63123;50.906;4.198;2023-04-15T04:28:23;2.08;;;1.88;;
74616;SDS011;63123;50.906;4.198;2023-04-15T04:30:48;2.63;;;2.40;;
74616;SDS011;63123;50.906;4.198;2023-04-15T04:33:14;2.05;;;1.85;;
74616;SDS011;63123;50.906;4.198;2023-04-15T04:35:40;2.55;;;2.35;;
74616;SDS011;63123;50.906;4.198;2023-04-15T04:38:05;2.10;;;1.90;;
74616;SDS011;63123;50.906;4.198;2023-04-15T04:40:31;2.38;;;2.17;;
74616;SDS011;63123;50.906;4.198;2023-04-15T04:42:57;2.97;;;2.63;;
74616;SDS011;63123;50.906;4.198;2023-04-15T04:45:22;2.88;;;2.55;;
74616;SDS011;63123;50.906;4.198;2023-04-15T04:47:48;2.33;;;2.15;;
74616;SDS011;63123;50.906;4.198;2023-04-15T04:50:13;2.42;;;2.22;;
74616;SDS011;63123;50.906;4.198;2023-04-15T04:52:39;3.28;;;2.92;;
74616;SDS011;63123;50.906;4.198;2023-04-15T04:55:05;3.10;;;2.80;;
74616;SDS011;63123;50.906;4.198;2023-04-15T04:57:32;3.63;;;2.75;;
74616;SDS011;63123;50.906;4.198;2023-04-15T04:59:59;3.42;;;2.60;;
74616;SDS011;63123;50.906;4.198;2023-04-15T05:02:26;2.30;;;2.10;;
74616;SDS011;63123;50.906;4.198;2023-04-15T05:04:51;3.53;;;2.40;;
74616;SDS011;63123;50.906;4.198;2023-04-15T05:07:18;3.28;;;2.42;;
74616;SDS011;63123;50.906;4.198;2023-04-15T05:09:45;2.65;;;2.45;;
74616;SDS011;63123;50.906;4.198;2023-04-15T05:12:10;2.28;;;2.08;;
74616;SDS011;63123;50.906;4.198;2023-04-15T05:14:39;1.92;;;1.80;;
74616;SDS011;63123;50.906;4.198;2023-04-15T05:17:06;2.70;;;2.20;;
74616;SDS011;63123;50.906;4.198;2023-04-15T05:19:32;2.42;;;1.90;;
74616;SDS011;63123;50.906;4.198;2023-04-15T05:21:58;2.55;;;2.33;;
74616;SDS011;63123;50.906;4.198;2023-04-15T05:24:24;2.20;;;2.00;;
74616;SDS011;63123;50.906;4.198;2023-04-15T05:26:50;2.35;;;1.90;;
74616;SDS011;63123;50.906;4.198;2023-04-15T05:29:15;2.08;;;1.88;;
74616;SDS011;63123;50.906;4.198;2023-04-15T05:31:41;2.08;;;1.70;;
74616;SDS011;63123;50.906;4.198;2023-04-15T05:34:07;2.13;;;1.92;;
74616;SDS011;63123;50.906;4.198;2023-04-15T05:36:33;2.00;;;1.80;;
74616;SDS011;63123;50.906;4.198;2023-04-15T05:38:58;2.25;;;1.83;;
74616;SDS011;63123;50.906;4.198;2023-04-15T05:41:24;2.33;;;2.13;;
74616;SDS011;63123;50.906;4.198;2023-04-15T05:43:50;2.20;;;2.00;;
74616;SDS011;63123;50.906;4.198;2023-04-15T05:46:15;2.58;;;1.92;;
74616;SDS011;63123;50.906;4.198;2023-04-15T05:48:41;2.08;;;1.85;;
74616;SDS011;63123;50.906;4.198;2023-04-15T05:51:07;2.13;;;1.92;;
74616;SDS011;63123;50.906;4.198;2023-04-15T05:53:33;2.17;;;1.98;;
74616;SDS011;63123;50.906;4.198;2023-04-15T05:55:58;1.90;;;1.70;;
74616;SDS011;63123;50.906;4.198;2023-04-15T05:58:24;2.80;;;2.00;;
74616;SDS011;63123;50.906;4.198;2023-04-15T06:00:50;2.40;;;2.20;;
74616;SDS011;63123;50.906;4.198;2023-04-15T06:03:16;1.80;;;1.70;;
74616;SDS011;63123;50.906;4.198;2023-04-15T06:05:42;2.85;;;2.13;;
74616;SDS011;63123;50.906;4.198;2023-04-15T06:08:08;2.60;;;2.40;;
74616;SDS011;63123;50.906;4.198;2023-04-15T06:10:35;2.10;;;1.90;;
74616;SDS011;63123;50.906;4.198;2023-04-15T06:13:04;1.77;;;1.67;;
74616;SDS011;63123;50.906;4.198;2023-04-15T06:15:30;2.20;;;2.00;;
74616;SDS011;63123;50.906;4.198;2023-04-15T06:17:56;2.58;;;2.10;;
74616;SDS011;63123;50.906;4.198;2023-04-15T06:20:21;2.33;;;2.13;;
74616;SDS011;63123;50.906;4.198;2023-04-15T06:22:47;2.40;;;2.00;;
74616;SDS011;63123;50.906;4.198;2023-04-15T06:25:13;3.13;;;2.88;;
74616;SDS011;63123;50.906;4.198;2023-04-15T06:27:39;2.17;;;1.90;;
74616;SDS011;63123;50.906;4.198;2023-04-15T06:30:04;2.17;;;1.98;;
74616;SDS011;63123;50.906;4.198;2023-04-15T06:32:31;1.92;;;1.70;;
74616;SDS011;63123;50.906;4.198;2023-04-15T06:34:57;2.20;;;2.00;;
74616;SDS011;63123;50.906;4.198;2023-04-15T06:37:22;2.30;;;2.10;;
74616;SDS011;63123;50.906;4.198;2023-04-15T06:39:48;2.25;;;2.05;;
74616;SDS011;63123;50.906;4.198;2023-04-15T06:42:14;2.10;;;1.90;;
74616;SDS011;63123;50.906;4.198;2023-04-15T06:44:40;2.30;;;2.10;;
74616;SDS011;63123;50.906;4.198;2023-04-15T06:47:06;2.20;;;2.00;;
74616;SDS011;63123;50.906;4.198;2023-04-15T06:49:33;2.55;;;2.35;;
74616;SDS011;63123;50.906;4.198;2023-04-15T06:51:59;2.42;;;2.05;;
74616;SDS011;63123;50.906;4.198;2023-04-15T06:54:25;2.17;;;1.98;;
74616;SDS011;63123;50.906;4.198;2023-04-15T06:56:51;2.63;;;2.42;;
74616;SDS011;63123;50.906;4.198;2023-04-15T06:59:16;3.33;;;1.88;;
74616;SDS011;63123;50.906;4.198;2023-04-15T07:01:42;2.00;;;1.90;;
74616;SDS011;63123;50.906;4.198;2023-04-15T07:04:08;2.28;;;2.05;;
74616;SDS011;63123;50.906;4.198;2023-04-15T07:06:35;2.10;;;1.90;;
74616;SDS011;63123;50.906;4.198;2023-04-15T07:09:00;1.98;;;1.75;;
74616;SDS011;63123;50.906;4.198;2023-04-15T07:11:28;2.55;;;2.08;;
74616;SDS011;63123;50.906;4.198;2023-04-15T07:13:54;2.70;;;2.33;;
74616;SDS011;63123;50.906;4.198;2023-04-15T07:16:21;2.90;;;2.42;;
74616;SDS011;63123;50.906;4.198;2023-04-15T07:18:47;2.97;;;2.55;;
74616;SDS011;63123;50.906;4.198;2023-04-15T07:21:12;2.67;;;2.47;;
74616;SDS011;63123;50.906;4.198;2023-04-15T07:23:38;2.40;;;2.20;;
74616;SDS011;63123;50.906;4.198;2023-04-15T07:26:04;1.98;;;1.88;;
74616;SDS011;63123;50.906;4.198;2023-04-15T07:28:30;2.80;;;2.15;;
74616;SDS011;63123;50.906;4.198;2023-04-15T07:30:55;3.20;;;2.55;;
74616;SDS011;63123;50.906;4.198;2023-04-15T07:33:21;2.40;;;2.20;;
74616;SDS011;63123;50.906;4.198;2023-04-15T07:35:47;3.00;;;2.70;;
74616;SDS011;63123;50.906;4.198;2023-04-15T07:38:13;2.72;;;2.53;;
74616;SDS011;63123;50.906;4.198;2023-04-15T07:40:38;2.67;;;2.47;;
74616;SDS011;63123;50.906;4.198;2023-04-15T07:43:04;2.95;;;2.47;;
74616;SDS011;63123;50.906;4.198;2023-04-15T07:45:30;2.60;;;2.40;;
74616;SDS011;63123;50.906;4.198;2023-04-15T07:47:56;3.17;;;2.78;;
74616;SDS011;63123;50.906;4.198;2023-04-15T07:50:22;3.33;;;3.03;;
74616;SDS011;63123;50.906;4.198;2023-04-15T07:52:49;3.60;;;3.30;;
74616;SDS011;63123;50.906;4.198;2023-04-15T07:55:16;2.88;;;2.65;;
74616;SDS011;63123;50.906;4.198;2023-04-15T07:57:44;2.72;;;2.53;;
74616;SDS011;63123;50.906;4.198;2023-04-15T08:00:09;3.97;;;3.65;;
74616;SDS011;63123;50.906;4.198;2023-04-15T08:02:35;3.30;;;3.00;;
74616;SDS011;63123;50.906;4.198;2023-04-15T08:05:01;4.25;;;3.90;;
74616;SDS011;63123;50.906;4.198;2023-04-15T08:07:28;3.80;;;3.50;;
74616;SDS011;63123;50.906;4.198;2023-04-15T08:09:54;4.22;;;3.90;;
74616;SDS011;63123;50.906;4.198;2023-04-15T08:12:20;5.00;;;4.45;;
74616;SDS011;63123;50.906;4.198;2023-04-15T08:14:46;4.65;;;4.25;;
74616;SDS011;63123;50.906;4.198;2023-04-15T08:17:11;3.88;;;3.50;;
74616;SDS011;63123;50.906;4.198;2023-04-15T08:19:37;5.85;;;4.80;;
74616;SDS011;63123;50.906;4.198;2023-04-15T08:22:03;4.07;;;3.78;;
74616;SDS011;63123;50.906;4.198;2023-04-15T08:24:30;4.40;;;4.00;;
74616;SDS011;63123;50.906;4.198;2023-04-15T08:26:55;4.03;;;3.72;;
74616;SDS011;63123;50.906;4.198;2023-04-15T08:29:21;4.68;;;4.38;;
74616;SDS011;63123;50.906;4.198;2023-04-15T08:31:47;3.83;;;3.53;;
74616;SDS011;63123;50.906;4.198;2023-04-15T08:34:13;4.65;;;4.25;;
74616;SDS011;63123;50.906;4.198;2023-04-15T08:36:39;4.93;;;4.53;;
74616;SDS011;63123;50.906;4.198;2023-04-15T08:39:05;4.63;;;4.22;;
74616;SDS011;63123;50.906;4.198;2023-04-15T08:41:33;4.22;;;3.92;;
74616;SDS011;63123;50.906;4.198;2023-04-15T08:44:09;4.32;;;3.92;;
74616;SDS011;63123;50.906;4.198;2023-04-15T08:46:35;5.60;;;5.00;;
74616;SDS011;63123;50.906;4.198;2023-04-15T08:49:02;5.25;;;4.85;;
74616;SDS011;63123;50.906;4.198;2023-04-15T08:51:29;5.38;;;4.88;;
74616;SDS011;63123;50.906;4.198;2023-04-15T08:53:56;4.75;;;4.32;;
74616;SDS011;63123;50.906;4.198;2023-04-15T08:56:23;4.68;;;4.28;;
74616;SDS011;63123;50.906;4.198;2023-04-15T08:58:52;4.10;;;3.80;;
74616;SDS011;63123;50.906;4.198;2023-04-15T09:01:18;4.88;;;4.47;;
74616;SDS011;63123;50.906;4.198;2023-04-15T09:03:45;4.43;;;4.05;;
74616;SDS011;63123;50.906;4.198;2023-04-15T09:06:15;4.85;;;4.45;;
74616;SDS011;63123;50.906;4.198;2023-04-15T09:08:41;5.10;;;4.70;;
74616;SDS011;63123;50.906;4.198;2023-04-15T09:11:07;5.32;;;4.82;;
74616;SDS011;63123;50.906;4.198;2023-04-15T09:13:33;4.20;;;3.85;;
74616;SDS011;63123;50.906;4.198;2023-04-15T09:16:00;3.50;;;3.20;;
74616;SDS011;63123;50.906;4.198;2023-04-15T09:18:29;4.13;;;3.83;;
74616;SDS011;63123;50.906;4.198;2023-04-15T09:20:56;4.63;;;4.25;;
74616;SDS011;63123;50.906;4.198;2023-04-15T09:23:36;5.13;;;4.70;;
74616;SDS011;63123;50.906;4.198;2023-04-15T09:26:05;4.38;;;3.97;;
74616;SDS011;63123;50.906;4.198;2023-04-15T09:28:31;4.72;;;4.30;;
74616;SDS011;63123;50.906;4.198;2023-04-15T09:31:00;4.32;;;4.00;;
74616;SDS011;63123;50.906;4.198;2023-04-15T09:33:27;4.20;;;3.85;;
74616;SDS011;63123;50.906;4.198;2023-04-15T09:35:57;4.40;;;4.00;;
74616;SDS011;63123;50.906;4.198;2023-04-15T09:38:29;4.03;;;3.72;;
74616;SDS011;63123;50.906;4.198;2023-04-15T09:40:56;4.50;;;4.07;;
74616;SDS011;63123;50.906;4.198;2023-04-15T09:43:25;4.15;;;3.80;;
74616;SDS011;63123;50.906;4.198;2023-04-15T09:46:03;4.43;;;4.03;;
74616;SDS011;63123;50.906;4.198;2023-04-15T09:48:29;3.30;;;2.92;;
74616;SDS011;63123;50.906;4.198;2023-04-15T09:50:58;4.15;;;3.75;;
74616;SDS011;63123;50.906;4.198;2023-04-15T09:53:25;3.25;;;3.05;;
74616;SDS011;63123;50.906;4.198;2023-04-15T09:55:52;3.30;;;3.08;;
74616;SDS011;63123;50.906;4.198;2023-04-15T09:58:23;5.43;;;4.20;;
74616;SDS011;63123;50.906;4.198;2023-04-15T10:00:51;3.20;;;2.90;;
74616;SDS011;63123;50.906;4.198;2023-04-15T10:03:24;4.03;;;3.65;;
74616;SDS011;63123;50.906;4.198;2023-04-15T10:05:52;3.85;;;2.83;;
74616;SDS011;63123;50.906;4.198;2023-04-15T10:08:20;3.10;;;2.83;;
74616;SDS011;63123;50.906;4.198;2023-04-15T10:10:48;3.20;;;3.00;;
74616;SDS011;63123;50.906;4.198;2023-04-15T10:13:17;2.95;;;2.75;;
74616;SDS011;63123;50.906;4.198;2023-04-15T10:15:44;3.00;;;2.63;;
74616;SDS011;63123;50.906;4.198;2023-04-15T10:18:14;3.90;;;3.17;;
74616;SDS011;63123;50.906;4.198;2023-04-15T10:20:43;2.83;;;2.55;;
74616;SDS011;63123;50.906;4.198;2023-04-15T10:23:11;2.50;;;2.30;;
74616;SDS011;63123;50.906;4.198;2023-04-15T10:25:37;3.17;;;2.88;;
74616;SDS011;63123;50.906;4.198;2023-04-15T10:28:03;3.25;;;2.95;;
74616;SDS011;63123;50.906;4.198;2023-04-15T10:30:31;2.60;;;2.40;;
74616;SDS011;63123;50.906;4.198;2023-04-15T10:32:58;2.97;;;2.65;;
74616;SDS011;63123;50.906;4.198;2023-04-15T10:35:25;3.17;;;2.90;;
74616;SDS011;63123;50.906;4.198;2023-04-15T10:37:52;3.63;;;3.13;;
74616;SDS011;63123;50.906;4.198;2023-04-15T10:40:24;3.20;;;2.90;;
74616;SDS011;63123;50.906;4.198;2023-04-15T10:42:55;3.55;;;3.35;;
74616;SDS011;63123;50.906;4.198;2023-04-15T10:45:21;3.30;;;3.05;;
74616;SDS011;63123;50.906;4.198;2023-04-15T10:47:54;4.20;;;3.90;;
74616;SDS011;63123;50.906;4.198;2023-04-15T10:50:21;3.97;;;3.58;;
74616;SDS011;63123;50.906;4.198;2023-04-15T10:52:49;3.75;;;3.45;;
74616;SDS011;63123;50.906;4.198;2023-04-15T10:55:23;3.30;;;3.00;;
74616;SDS011;63123;50.906;4.198;2023-04-15T10:57:51;2.90;;;2.70;;
74616;SDS011;63123;50.906;4.198;2023-04-15T11:00:19;3.92;;;2.50;;
74616;SDS011;63123;50.906;4.198;2023-04-15T11:02:55;2.90;;;2.65;;
74616;SDS011;63123;50.906;4.198;2023-04-15T11:08:05;2.67;;;2.40;;
74616;SDS011;63123;50.906;4.198;2023-04-15T11:12:58;2.35;;;2.15;;
74616;SDS011;63123;50.906;4.198;2023-04-15T11:15:30;2.15;;;1.95;;
74616;SDS011;63123;50.906;4.198;2023-04-15T11:18:09;2.67;;;2.47;;
74616;SDS011;63123;50.906;4.198;2023-04-15T11:23:03;2.53;;;2.10;;
74616;SDS011;63123;50.906;4.198;2023-04-15T11:25:29;2.58;;;2.20;;
74616;SDS011;63123;50.906;4.198;2023-04-15T11:27:57;2.22;;;2.10;;
74616;SDS011;63123;50.906;4.198;2023-04-15T11:30:24;2.25;;;2.05;;
74616;SDS011;63123;50.906;4.198;2023-04-15T11:32:51;2.00;;;1.85;;
74616;SDS011;63123;50.906;4.198;2023-04-15T11:35:25;3.00;;;2.40;;
74616;SDS011;63123;50.906;4.198;2023-04-15T11:37:50;3.45;;;2.75;;
74616;SDS011;63123;50.906;4.198;2023-04-15T11:40:21;3.42;;;2.55;;
74616;SDS011;63123;50.906;4.198;2023-04-15T11:43:05;2.40;;;2.10;;
74616;SDS011;63123;50.906;4.198;2023-04-15T11:45:31;2.17;;;1.92;;
74616;SDS011;63123;50.906;4.198;2023-04-15T11:48:07;2.47;;;2.28;;
74616;SDS011;63123;50.906;4.198;2023-04-15T11:50:34;2.13;;;1.90;;
74616;SDS011;63123;50.906;4.198;2023-04-15T11:53:01;2.30;;;2.10;;
74616;SDS011;63123;50.906;4.198;2023-04-15T11:55:30;2.03;;;1.90;;
74616;SDS011;63123;50.906;4.198;2023-04-15T12:00:34;3.40;;;2.40;;
74616;SDS011;63123;50.906;4.198;2023-04-15T12:03:16;2.03;;;1.92;;
74616;SDS011;63123;50.906;4.198;2023-04-15T12:08:46;2.05;;;1.70;;
74616;SDS011;63123;50.906;4.198;2023-04-15T12:16:47;2.13;;;1.73;;
74616;SDS011;63123;50.906;4.198;2023-04-15T12:19:15;2.20;;;2.00;;
74616;SDS011;63123;50.906;4.198;2023-04-15T12:21:43;2.50;;;2.30;;
74616;SDS011;63123;50.906;4.198;2023-04-15T12:24:11;2.85;;;2.55;;
74616;SDS011;63123;50.906;4.198;2023-04-15T12:26:49;1.85;;;1.67;;
74616;SDS011;63123;50.906;4.198;2023-04-15T12:29:19;1.73;;;1.60;;
74616;SDS011;63123;50.906;4.198;2023-04-15T12:31:52;2.13;;;1.95;;
74616;SDS011;63123;50.906;4.198;2023-04-15T12:34:52;2.05;;;1.85;;
74616;SDS011;63123;50.906;4.198;2023-04-15T12:37:14;2.53;;;2.30;;
74616;SDS011;63123;50.906;4.198;2023-04-15T12:39:41;2.08;;;1.88;;
74616;SDS011;63123;50.906;4.198;2023-04-15T12:42:08;2.08;;;1.50;;
74616;SDS011;63123;50.906;4.198;2023-04-15T12:44:34;2.20;;;1.42;;
74616;SDS011;63123;50.906;4.198;2023-04-15T12:47:00;1.63;;;1.50;;
74616;SDS011;63123;50.906;4.198;2023-04-15T12:49:27;1.65;;;1.55;;
74616;SDS011;63123;50.906;4.198;2023-04-15T12:51:53;1.65;;;1.55;;
74616;SDS011;63123;50.906;4.198;2023-04-15T12:54:20;2.25;;;2.05;;
74616;SDS011;63123;50.906;4.198;2023-04-15T12:56:46;2.00;;;1.50;;
74616;SDS011;63123;50.906;4.198;2023-04-15T12:59:14;2.00;;;1.80;;
74616;SDS011;63123;50.906;4.198;2023-04-15T13:01:41;2.20;;;2.00;;
74616;SDS011;63123;50.906;4.198;2023-04-15T13:04:07;2.00;;;1.85;;
74616;SDS011;63123;50.906;4.198;2023-04-15T13:06:33;1.95;;;1.85;;
74616;SDS011;63123;50.906;4.198;2023-04-15T13:08:59;2.05;;;1.95;;
74616;SDS011;63123;50.906;4.198;2023-04-15T13:11:25;2.70;;;1.77;;
74616;SDS011;63123;50.906;4.198;2023-04-15T13:13:51;2.22;;;2.03;;
74616;SDS011;63123;50.906;4.198;2023-04-15T13:16:17;1.83;;;1.42;;
74616;SDS011;63123;50.906;4.198;2023-04-15T13:18:43;1.73;;;1.58;;
74616;SDS011;63123;50.906;4.198;2023-04-15T13:21:11;2.28;;;2.08;;
74616;SDS011;63123;50.906;4.198;2023-04-15T13:23:37;1.98;;;1.50;;
74616;SDS011;63123;50.906;4.198;2023-04-15T13:26:02;2.60;;;2.05;;
74616;SDS011;63123;50.906;4.198;2023-04-15T13:28:28;1.77;;;1.67;;
74616;SDS011;63123;50.906;4.198;2023-04-15T13:30:53;1.75;;;1.65;;
74616;SDS011;63123;50.906;4.198;2023-04-15T13:33:19;2.10;;;1.77;;
74616;SDS011;63123;50.906;4.198;2023-04-15T13:35:45;2.47;;;1.75;;
74616;SDS011;63123;50.906;4.198;2023-04-15T13:38:11;1.70;;;1.60;;
74616;SDS011;63123;50.906;4.198;2023-04-15T13:40:36;1.75;;;1.65;;
74616;SDS011;63123;50.906;4.198;2023-04-15T13:43:02;2.60;;;2.08;;
74616;SDS011;63123;50.906;4.198;2023-04-15T13:45:28;2.35;;;1.90;;
74616;SDS011;63123;50.906;4.198;2023-04-15T13:47:54;1.65;;;1.55;;
74616;SDS011;63123;50.906;4.198;2023-04-15T13:50:21;2.00;;;1.80;;
74616;SDS011;63123;50.906;4.198;2023-04-15T13:52:47;1.52;;;1.40;;
74616;SDS011;63123;50.906;4.198;2023-04-15T13:55:12;2.00;;;1.90;;
74616;SDS011;63123;50.906;4.198;2023-04-15T13:57:38;2.28;;;2.10;;
74616;SDS011;63123;50.906;4.198;2023-04-15T14:00:04;1.50;;;1.40;;
74616;SDS011;63123;50.906;4.198;2023-04-15T14:02:30;1.80;;;1.58;;
74616;SDS011;63123;50.906;4.198;2023-04-15T14:04:55;2.30;;;1.70;;
74616;SDS011;63123;50.906;4.198;2023-04-15T14:07:21;1.98;;;1.60;;
74616;SDS011;63123;50.906;4.198;2023-04-15T14:09:47;1.92;;;1.73;;
74616;SDS011;63123;50.906;4.198;2023-04-15T14:12:13;2.03;;;1.83;;
74616;SDS011;63123;50.906;4.198;2023-04-15T14:14:38;1.52;;;1.42;;
74616;SDS011;63123;50.906;4.198;2023-04-15T14:17:04;1.70;;;1.60;;
74616;SDS011;63123;50.906;4.198;2023-04-15T14:19:30;2.70;;;1.75;;
74616;SDS011;63123;50.906;4.198;2023-04-15T14:21:56;1.55;;;1.40;;
74616;SDS011;63123;50.906;4.198;2023-04-15T14:24:22;1.77;;;1.45;;
74616;SDS011;63123;50.906;4.198;2023-04-15T14:26:47;1.48;;;1.27;;
74616;SDS011;63123;50.906;4.198;2023-04-15T14:29:13;2.13;;;1.50;;
74616;SDS011;63123;50.906;4.198;2023-04-15T14:31:39;1.55;;;1.38;;
74616;SDS011;63123;50.906;4.198;2023-04-15T14:34:04;1.95;;;1.50;;
74616;SDS011;63123;50.906;4.198;2023-04-15T14:36:30;1.73;;;1.40;;
74616;SDS011;63123;50.906;4.198;2023-04-15T14:38:56;1.60;;;1.50;;
74616;SDS011;63123;50.906;4.198;2023-04-15T14:41:22;2.08;;;1.80;;
74616;SDS011;63123;50.906;4.198;2023-04-15T14:43:47;1.83;;;1.70;;
74616;SDS011;63123;50.906;4.198;2023-04-15T14:46:13;2.15;;;1.55;;
74616;SDS011;63123;50.906;4.198;2023-04-15T14:48:39;1.42;;;1.30;;
74616;SDS011;63123;50.906;4.198;2023-04-15T14:51:05;1.98;;;1.80;;
74616;SDS011;63123;50.906;4.198;2023-04-15T14:53:30;2.10;;;1.85;;
74616;SDS011;63123;50.906;4.198;2023-04-15T14:55:56;1.77;;;1.63;;
74616;SDS011;63123;50.906;4.198;2023-04-15T14:58:22;1.73;;;1.63;;
74616;SDS011;63123;50.906;4.198;2023-04-15T15:00:47;2.38;;;2.17;;
74616;SDS011;63123;50.906;4.198;2023-04-15T15:03:13;1.98;;;1.58;;